Time;durP1;ratioP1;P1;durP2;ratioP2;P2;SDS_P1;SDS_P2;PMS_P1;PMS_P2;Temp;Humidity;BMP_temperature;BMP_pressure;BME280_temperature;BME280_humidity;BME280_pressure;Samples;Min_cycle;Max_cycle;Signal;HPM_P1;HPM_P2
2021/07/10 00:00:35;;;;;;;20.27;12.57;;;;;;;19.88;76.47;100077.91;5108904;28;20051;-75
2021/07/10 00:03:03;;;;;;;19.77;12.23;;;;;;;19.84;76.31;100084.59;5108147;28;20056;-74
2021/07/10 00:05:30;;;;;;;18.45;11.90;;;;;;;19.80;76.72;100088.66;5108317;28;20050;-74
2021/07/10 00:07:58;;;;;;;20.63;12.50;;;;;;;19.81;76.76;100095.69;5109040;28;20048;-74
2021/07/10 00:10:24;;;;;;;18.77;11.52;;;;;;;19.88;76.48;100101.16;5106563;28;20075;-73
2021/07/10 00:12:52;;;;;;;20.00;12.32;;;;;;;19.89;76.33;100098.31;5108190;28;20424;-74
2021/07/10 00:15:21;;;;;;;22.13;12.70;;;;;;;19.78;76.86;100094.19;5107984;28;20095;-74
2021/07/10 00:17:48;;;;;;;22.35;12.32;;;;;;;19.76;76.79;100098.88;5107209;28;20047;-74
2021/07/10 00:20:18;;;;;;;22.40;11.70;;;;;;;19.76;76.74;100093.53;5108487;28;20048;-75
2021/07/10 00:22:45;;;;;;;19.88;11.75;;;;;;;19.84;76.73;100100.69;5107872;28;20433;-75
2021/07/10 00:25:15;;;;;;;17.52;10.88;;;;;;;19.81;76.84;100098.38;5108081;28;20054;-74
2021/07/10 00:27:43;;;;;;;17.48;11.50;;;;;;;19.76;76.75;100087.34;5107807;28;20170;-75
2021/07/10 00:30:11;;;;;;;18.92;11.48;;;;;;;19.78;77.07;100093.34;5107701;28;20403;-72
2021/07/10 00:42:46;;;;;;;22.85;11.57;;;;;;;19.77;76.83;100091.66;5107241;28;20086;-74
2021/07/10 00:45:15;;;;;;;23.10;12.65;;;;;;;19.79;77.00;100089.66;5107957;28;20043;-73
2021/07/10 00:47:42;;;;;;;17.58;11.13;;;;;;;19.89;76.72;100092.94;5108697;28;20054;-72
2021/07/10 00:50:11;;;;;;;19.25;12.00;;;;;;;19.94;76.28;100076.34;5107906;28;20047;-75
2021/07/10 00:52:38;;;;;;;18.00;11.60;;;;;;;19.95;76.12;100075.31;5106811;28;20059;-74
2021/07/10 00:55:06;;;;;;;19.27;11.10;;;;;;;19.92;76.25;100059.63;5108238;28;20043;-74
2021/07/10 00:57:35;;;;;;;20.02;12.25;;;;;;;19.93;76.59;100064.78;5107322;28;20055;-75
2021/07/10 01:00:06;;;;;;;26.10;11.63;;;;;;;19.98;76.31;100066.94;5107084;28;20048;-74
2021/07/10 01:02:34;;;;;;;16.55;11.43;;;;;;;19.98;76.20;100058.91;5106920;28;20058;-73
2021/07/10 01:05:01;;;;;;;27.20;12.93;;;;;;;19.95;76.40;100053.88;5107430;28;20044;-72
2021/07/10 01:07:28;;;;;;;22.23;12.65;;;;;;;19.90;76.43;100049.06;5107617;28;20044;-73
2021/07/10 01:09:55;;;;;;;24.20;12.68;;;;;;;19.86;76.35;100048.59;5106045;28;20067;-72
2021/07/10 01:12:22;;;;;;;20.90;13.15;;;;;;;19.81;76.39;100044.78;5107221;28;20043;-75
2021/07/10 01:14:49;;;;;;;26.83;12.20;;;;;;;19.78;76.54;100053.16;5108477;28;20043;-75
2021/07/10 01:17:17;;;;;;;25.75;15.85;;;;;;;19.77;76.53;100054.16;5113642;28;20035;-75
2021/07/10 01:19:44;;;;;;;23.60;13.60;;;;;;;19.76;76.56;100056.00;5107393;28;20066;-73
2021/07/10 01:22:12;;;;;;;18.65;13.35;;;;;;;19.76;76.45;100065.91;5108129;28;20127;-74
2021/07/10 01:24:39;;;;;;;20.85;14.73;;;;;;;19.77;76.60;100072.91;5106969;28;20043;-74
2021/07/10 01:27:06;;;;;;;32.08;15.60;;;;;;;19.73;76.46;100077.78;5107673;28;20044;-75
2021/07/10 01:29:36;;;;;;;21.80;13.32;;;;;;;19.72;76.57;100078.78;5107273;28;20513;-75
2021/07/10 01:32:03;;;;;;;23.90;14.30;;;;;;;19.82;76.46;100078.59;5107136;28;20048;-74
2021/07/10 01:34:33;;;;;;;27.70;15.10;;;;;;;19.90;76.48;100075.00;5107261;28;20047;-74
2021/07/10 01:37:00;;;;;;;30.25;16.17;;;;;;;19.94;76.25;100085.22;5107015;28;20095;-73
2021/07/10 01:39:29;;;;;;;19.15;14.60;;;;;;;19.99;76.11;100088.22;5105482;28;20590;-74
2021/07/10 01:41:55;;;;;;;26.20;15.25;;;;;;;20.05;75.85;100082.13;5107243;28;20052;-74
2021/07/10 01:44:22;;;;;;;30.02;16.58;;;;;;;20.18;75.85;100084.22;5108191;28;20364;-74
2021/07/10 01:46:49;;;;;;;27.77;16.75;;;;;;;20.22;75.95;100092.75;5106490;28;20044;-73
2021/07/10 01:49:16;;;;;;;24.60;15.50;;;;;;;20.30;75.74;100091.88;5107642;28;20051;-73
2021/07/10 01:51:43;;;;;;;28.52;16.23;;;;;;;20.35;75.41;100093.00;5107139;28;20043;-75
2021/07/10 01:54:11;;;;;;;26.75;16.27;;;;;;;20.40;75.38;100098.66;5106582;28;20428;-74
2021/07/10 01:56:39;;;;;;;23.95;16.30;;;;;;;20.47;75.25;100095.25;5106708;28;20051;-74
2021/07/10 01:59:06;;;;;;;28.15;16.60;;;;;;;20.51;75.13;100096.56;5107183;28;20051;-77
2021/07/10 02:01:33;;;;;;;29.17;18.83;;;;;;;20.56;75.27;100094.19;5110863;28;20050;-72
2021/07/10 02:04:00;;;;;;;35.65;21.70;;;;;;;20.59;75.24;100099.19;5106885;28;20047;-73
2021/07/10 02:06:27;;;;;;;37.65;21.48;;;;;;;20.65;75.02;100089.59;5107040;28;20039;-73
2021/07/10 02:08:55;;;;;;;38.08;21.65;;;;;;;20.68;74.88;100086.56;5104233;28;20511;-73
2021/07/10 02:11:22;;;;;;;37.55;23.60;;;;;;;20.70;75.30;100095.28;5106811;28;20044;-73
2021/07/10 02:13:50;;;;;;;45.10;26.45;;;;;;;20.70;75.37;100092.59;5106649;28;20054;-77
2021/07/10 02:16:17;;;;;;;43.00;24.38;;;;;;;20.69;75.34;100094.44;5106279;28;20050;-74
2021/07/10 02:18:44;;;;;;;42.50;23.15;;;;;;;20.71;75.33;100091.59;5107484;28;20055;-73
2021/07/10 02:21:11;;;;;;;37.05;22.92;;;;;;;20.71;75.54;100087.03;5106431;28;20579;-73
2021/07/10 02:23:38;;;;;;;46.53;27.42;;;;;;;20.71;75.54;100092.41;5105477;28;20575;-75
2021/07/10 02:26:05;;;;;;;43.50;27.13;;;;;;;20.77;75.19;100085.47;5110138;28;20156;-74
2021/07/10 02:28:32;;;;;;;49.63;27.85;;;;;;;20.86;75.02;100091.63;5112024;28;20039;-74
2021/07/10 02:31:00;;;;;;;47.75;26.15;;;;;;;20.84;75.41;100101.69;5105987;28;20044;-73
2021/07/10 02:33:27;;;;;;;48.85;27.38;;;;;;;20.86;75.51;100099.66;5108920;28;20047;-73
2021/07/10 02:35:54;;;;;;;55.97;32.15;;;;;;;20.87;75.16;100101.31;5105853;28;20558;-73
2021/07/10 02:38:21;;;;;;;49.22;29.30;;;;;;;20.86;75.38;100097.81;5106426;28;20055;-73
2021/07/10 02:40:48;;;;;;;50.75;30.55;;;;;;;20.88;75.25;100100.31;5104997;28;20040;-74
2021/07/10 02:43:15;;;;;;;50.03;29.77;;;;;;;20.89;75.25;100100.13;5105921;28;20051;-73
2021/07/10 02:45:43;;;;;;;47.42;29.65;;;;;;;20.91;75.35;100099.97;5105928;28;20075;-74
2021/07/10 02:48:12;;;;;;;53.13;29.50;;;;;;;20.95;75.25;100091.34;5105652;28;20051;-73
2021/07/10 02:50:39;;;;;;;50.88;30.27;;;;;;;21.01;74.99;100103.19;5120889;28;20059;-74
2021/07/10 02:53:06;;;;;;;49.67;31.00;;;;;;;21.00;75.16;100107.75;5108249;28;20050;-73
2021/07/10 02:55:34;;;;;;;56.00;32.35;;;;;;;21.03;74.90;100101.19;5110210;28;20506;-75
2021/07/10 02:58:01;;;;;;;44.38;30.58;;;;;;;21.06;75.11;100111.53;5110744;28;20040;-73
2021/07/10 03:00:29;;;;;;;48.17;30.40;;;;;;;21.10;75.04;100112.84;5109980;28;20043;-73
2021/07/10 03:02:56;;;;;;;47.28;30.85;;;;;;;21.14;75.09;100113.28;5109733;28;20654;-74
2021/07/10 03:05:27;;;;;;;46.45;28.92;;;;;;;21.16;75.17;100113.97;5110078;28;20127;-75
2021/07/10 03:07:54;;;;;;;52.28;30.15;;;;;;;21.22;74.85;100115.09;5110204;28;20583;-75
2021/07/10 03:10:25;;;;;;;50.28;28.85;;;;;;;21.15;74.90;100126.53;5108665;28;20056;-73
2021/07/10 03:12:52;;;;;;;39.90;25.30;;;;;;;21.12;74.72;100120.72;5110008;28;20491;-74
2021/07/10 03:15:19;;;;;;;39.22;25.38;;;;;;;21.16;74.52;100122.03;5109683;28;20044;-73
2021/07/10 03:17:49;;;;;;;33.58;25.80;;;;;;;21.14;74.66;100127.59;5109157;28;20066;-74
2021/07/10 03:20:16;;;;;;;35.13;24.23;;;;;;;21.10;74.30;100131.63;5110071;28;20498;-73
2021/07/10 03:22:46;;;;;;;29.08;20.08;;;;;;;21.08;74.26;100135.53;5108652;28;20048;-73
2021/07/10 03:25:14;;;;;;;23.35;17.38;;;;;;;20.97;74.04;100142.16;5109135;28;20082;-74
2021/07/10 03:27:43;;;;;;;25.40;19.25;;;;;;;20.89;73.55;100139.56;5109985;28;20051;-74
2021/07/10 03:30:13;;;;;;;20.10;16.20;;;;;;;20.87;74.04;100149.63;5110585;28;20058;-73
2021/07/10 03:32:40;;;;;;;25.98;15.35;;;;;;;20.88;73.81;100152.13;5109818;28;20046;-75
2021/07/10 03:35:08;;;;;;;19.08;15.73;;;;;;;20.76;72.67;100148.22;5110301;28;20047;-74
2021/07/10 03:37:35;;;;;;;15.82;13.18;;;;;;;20.64;72.48;100145.13;5110140;28;20727;-75
2021/07/10 03:40:05;;;;;;;15.48;13.75;;;;;;;20.54;72.56;100155.22;5111456;28;20044;-74
2021/07/10 03:42:32;;;;;;;16.38;13.32;;;;;;;20.45;72.08;100157.13;5112374;28;20074;-73
2021/07/10 03:44:59;;;;;;;18.08;13.45;;;;;;;20.42;72.32;100152.97;5114790;28;20032;-73
2021/07/10 03:47:26;;;;;;;16.40;13.05;;;;;;;20.43;72.19;100154.63;5114658;28;20104;-74
2021/07/10 03:49:53;;;;;;;16.02;13.38;;;;;;;20.36;71.97;100159.03;5114876;28;20048;-75
2021/07/10 03:52:20;;;;;;;19.90;16.50;;;;;;;20.19;71.61;100162.84;5109569;28;20393;-76
2021/07/10 03:54:47;;;;;;;15.15;12.70;;;;;;;20.17;72.22;100163.00;5108557;28;20058;-74
2021/07/10 03:57:15;;;;;;;17.50;14.65;;;;;;;20.14;72.08;100168.72;5108943;28;20050;-73
2021/07/10 03:59:42;;;;;;;20.35;14.77;;;;;;;20.11;72.09;100173.59;5109042;28;20400;-74
2021/07/10 04:02:09;;;;;;;19.75;15.65;;;;;;;20.01;72.00;100169.28;5112199;28;20050;-73
2021/07/10 04:04:37;;;;;;;16.90;13.88;;;;;;;20.07;71.93;100167.75;5111673;28;20054;-78
2021/07/10 04:07:04;;;;;;;19.80;14.38;;;;;;;20.13;71.76;100168.88;5111012;28;20595;-76
2021/07/10 04:09:31;;;;;;;22.42;13.82;;;;;;;20.17;71.54;100173.75;5107570;28;20035;-74
2021/07/10 04:11:58;;;;;;;15.90;13.38;;;;;;;20.07;71.43;100178.47;5108727;28;20492;-74
2021/07/10 04:14:29;;;;;;;17.65;13.00;;;;;;;20.08;71.49;100182.84;5109355;28;20534;-73
2021/07/10 04:16:56;;;;;;;13.02;11.68;;;;;;;20.04;71.31;100189.53;5108624;28;20666;-73
2021/07/10 04:19:23;;;;;;;14.60;12.63;;;;;;;19.97;71.64;100189.41;5108903;28;20052;-75
2021/07/10 04:21:50;;;;;;;14.38;12.43;;;;;;;19.96;71.75;100193.09;5108762;28;20058;-72
2021/07/10 04:24:17;;;;;;;16.38;13.10;;;;;;;19.90;71.65;100190.28;5109325;28;20627;-77
2021/07/10 04:26:44;;;;;;;8.57;7.68;;;;;;;19.97;71.44;100194.78;5108775;28;20066;-73
2021/07/10 04:29:11;;;;;;;8.43;6.93;;;;;;;20.07;71.01;100191.06;5109067;28;20043;-74
2021/07/10 04:31:39;;;;;;;9.18;5.97;;;;;;;20.10;70.81;100190.72;5108128;28;20058;-71
2021/07/10 04:34:06;;;;;;;8.52;5.63;;;;;;;20.17;70.26;100191.69;5109798;28;20430;-74
2021/07/10 04:36:32;;;;;;;14.25;5.53;;;;;;;20.13;69.75;100195.69;5110635;28;20062;-72
2021/07/10 04:38:59;;;;;;;7.85;5.57;;;;;;;20.16;69.99;100201.56;5107377;28;20055;-74
2021/07/10 04:41:26;;;;;;;4.68;2.83;;;;;;;20.10;68.75;100190.72;5110183;28;20043;-73
2021/07/10 04:43:53;;;;;;;4.05;2.50;;;;;;;20.02;68.28;100195.09;5110906;28;20043;-72
2021/07/10 04:46:20;;;;;;;4.93;2.40;;;;;;;19.98;68.53;100200.97;5111572;28;20500;-73
2021/07/10 04:48:48;;;;;;;4.53;2.05;;;;;;;19.96;68.13;100211.88;5110963;28;20396;-73
2021/07/10 04:51:15;;;;;;;3.50;1.48;;;;;;;19.93;67.30;100216.72;5110218;28;20565;-74
2021/07/10 04:53:42;;;;;;;5.13;1.67;;;;;;;19.90;67.13;100233.16;5112999;28;20611;-73
2021/07/10 04:56:09;;;;;;;4.07;1.63;;;;;;;19.88;67.18;100229.81;5110133;28;20519;-74
2021/07/10 04:58:36;;;;;;;7.18;3.05;;;;;;;19.81;66.62;100238.56;5109504;28;20583;-74
2021/07/10 05:01:03;;;;;;;4.13;1.50;;;;;;;19.83;66.55;100251.78;5111546;28;20455;-73
2021/07/10 05:03:30;;;;;;;2.42;1.90;;;;;;;19.85;66.77;100245.25;5108355;28;20631;-73
2021/07/10 05:05:58;;;;;;;4.38;1.95;;;;;;;19.82;66.51;100228.66;5109382;28;20104;-74
2021/07/10 05:08:25;;;;;;;3.22;1.88;;;;;;;19.89;66.04;100247.59;5107742;28;20047;-76
2021/07/10 05:10:52;;;;;;;3.45;1.50;;;;;;;19.83;65.92;100223.13;5106775;28;20055;-73
2021/07/10 05:13:19;;;;;;;5.22;1.75;;;;;;;19.93;65.96;100225.59;5108721;28;20043;-73
2021/07/10 05:15:46;;;;;;;1.98;1.60;;;;;;;20.09;65.70;100223.88;5106992;28;20047;-73
2021/07/10 05:18:12;;;;;;;2.20;1.83;;;;;;;20.19;65.10;100216.47;5105979;28;20135;-74
2021/07/10 05:20:39;;;;;;;5.18;3.50;;;;;;;20.23;65.03;100213.25;5108033;28;20052;-74
2021/07/10 05:23:08;;;;;;;1.50;1.40;;;;;;;20.28;64.46;100215.41;5107375;28;20039;-74
2021/07/10 05:25:34;;;;;;;1.50;1.40;;;;;;;20.34;63.69;100225.44;5106658;28;20047;-74
2021/07/10 05:28:01;;;;;;;3.38;1.77;;;;;;;20.16;63.67;100222.19;5106022;28;20696;-75
2021/07/10 05:30:28;;;;;;;3.78;1.65;;;;;;;19.96;64.15;100230.63;5107162;28;20039;-74
2021/07/10 05:32:55;;;;;;;4.88;1.83;;;;;;;20.01;64.54;100227.44;5107146;28;20500;-75
2021/07/10 05:35:23;;;;;;;3.25;1.90;;;;;;;19.99;64.03;100222.25;5106948;28;20071;-73
2021/07/10 05:37:50;;;;;;;2.90;1.90;;;;;;;19.90;64.20;100220.63;5104449;28;20123;-73
2021/07/10 05:40:19;;;;;;;2.58;1.75;;;;;;;20.02;64.11;100216.56;5104508;28;20436;-73
2021/07/10 05:42:48;;;;;;;3.15;2.05;;;;;;;20.37;64.05;100214.34;5106578;28;20047;-74
2021/07/10 05:45:16;;;;;;;7.00;2.20;;;;;;;21.10;62.17;100214.88;5107906;28;20054;-74
2021/07/10 05:47:43;;;;;;;5.30;1.75;;;;;;;21.55;61.01;100223.91;5110037;28;20048;-73
2021/07/10 05:50:11;;;;;;;1.90;1.70;;;;;;;21.81;60.47;100228.00;5105699;28;20517;-72
2021/07/10 05:52:38;;;;;;;2.85;1.95;;;;;;;22.61;58.78;100233.56;5110308;28;20040;-76
2021/07/10 05:55:07;;;;;;;4.57;1.67;;;;;;;22.90;58.05;100240.69;5107585;28;20062;-75
2021/07/10 05:57:35;;;;;;;3.35;2.00;;;;;;;23.33;55.91;100238.00;5122548;28;20044;-73
2021/07/10 06:00:03;;;;;;;3.60;1.50;;;;;;;23.31;54.65;100240.06;5106910;28;20032;-74
2021/07/10 06:02:30;;;;;;;2.75;1.55;;;;;;;23.23;54.82;100251.00;5106995;28;20339;-73
2021/07/10 06:04:56;;;;;;;1.65;1.25;;;;;;;22.79;55.04;100241.22;5111115;28;20047;-75
2021/07/10 06:07:23;;;;;;;2.20;1.67;;;;;;;22.11;55.85;100247.66;5107019;28;20047;-75
2021/07/10 06:09:50;;;;;;;4.20;1.50;;;;;;;21.92;56.56;100240.97;5105158;28;20047;-73
2021/07/10 06:12:17;;;;;;;2.65;1.27;;;;;;;21.48;56.97;100236.41;5107700;28;20048;-72
2021/07/10 06:14:45;;;;;;;1.50;1.40;;;;;;;21.20;58.50;100247.69;5106401;28;20055;-72
2021/07/10 06:17:12;;;;;;;1.73;1.02;;;;;;;21.09;58.90;100250.81;5110094;28;20043;-75
2021/07/10 06:19:39;;;;;;;8.73;2.13;;;;;;;21.03;58.03;100250.69;5106164;28;20039;-77
2021/07/10 06:22:06;;;;;;;1.30;1.20;;;;;;;20.89;59.44;100260.38;5108892;28;20048;-74
2021/07/10 06:24:34;;;;;;;3.30;2.03;;;;;;;21.02;59.72;100252.56;5108924;28;20130;-75
2021/07/10 06:27:02;;;;;;;1.20;1.10;;;;;;;21.20;59.46;100249.56;5120561;28;20032;-75
2021/07/10 06:29:29;;;;;;;1.23;1.13;;;;;;;21.34;57.69;100264.06;5116077;28;20043;-72
2021/07/10 06:31:57;;;;;;;1.20;1.10;;;;;;;21.96;56.54;100263.78;5116067;28;20046;-74
2021/07/10 06:34:24;;;;;;;3.00;1.80;;;;;;;22.53;55.42;100264.13;5115368;28;20050;-73
2021/07/10 06:36:51;;;;;;;1.83;0.90;;;;;;;23.20;53.71;100259.47;5112891;28;20038;-73
2021/07/10 06:39:20;;;;;;;1.20;1.08;;;;;;;23.27;53.16;100271.13;5111273;28;20131;-71
2021/07/10 06:41:47;;;;;;;1.52;1.42;;;;;;;23.18;52.70;100256.13;5104425;28;20050;-73
2021/07/10 06:44:13;;;;;;;1.98;1.33;;;;;;;22.61;53.33;100255.94;5103558;28;20078;-72
2021/07/10 06:46:40;;;;;;;2.35;1.50;;;;;;;22.60;53.64;100262.34;5103309;28;20062;-71
2021/07/10 06:49:10;;;;;;;4.47;2.75;;;;;;;22.80;54.10;100259.06;5104220;28;20405;-72
2021/07/10 06:51:38;;;;;;;4.50;1.08;;;;;;;22.01;54.34;100257.84;5102604;28;20417;-70
2021/07/10 06:54:05;;;;;;;1.83;1.15;;;;;;;21.72;55.47;100242.56;5103751;28;20097;-72
2021/07/10 06:56:31;;;;;;;1.33;1.00;;;;;;;21.53;55.78;100255.50;5103827;28;20039;-72
2021/07/10 06:58:58;;;;;;;1.75;1.23;;;;;;;21.51;55.96;100259.38;5104527;28;20043;-74
2021/07/10 07:01:27;;;;;;;1.45;1.20;;;;;;;21.46;56.64;100256.41;5105098;28;20055;-76
2021/07/10 07:03:54;;;;;;;1.30;1.05;;;;;;;21.74;56.06;100248.59;5104148;28;20044;-72
2021/07/10 07:06:22;;;;;;;1.35;0.90;;;;;;;21.82;55.93;100248.47;5104093;28;20048;-73
2021/07/10 07:08:49;;;;;;;1.90;1.23;;;;;;;22.02;55.89;100246.09;5105104;28;20051;-73
2021/07/10 07:11:16;;;;;;;2.38;1.20;;;;;;;22.54;55.05;100249.63;5101555;28;20051;-74
2021/07/10 07:13:43;;;;;;;1.63;1.30;;;;;;;22.91;53.48;100242.38;5103822;28;20455;-76
2021/07/10 07:16:10;;;;;;;1.42;0.80;;;;;;;22.99;52.86;100244.09;5102239;28;20054;-73
2021/07/10 07:18:37;;;;;;;2.95;1.05;;;;;;;22.92;52.42;100244.03;5103662;28;20051;-77
2021/07/10 07:21:04;;;;;;;1.30;0.70;;;;;;;22.86;52.77;100242.13;5103940;28;20046;-77
2021/07/10 07:23:33;;;;;;;1.13;1.02;;;;;;;22.82;53.18;100252.44;5104809;28;20051;-76
2021/07/10 07:26:00;;;;;;;1.30;1.20;;;;;;;22.47;52.35;100243.34;5104090;28;20063;-75
2021/07/10 07:28:27;;;;;;;3.95;1.90;;;;;;;22.44;53.01;100238.34;5103721;28;20064;-74
2021/07/10 07:30:53;;;;;;;0.98;0.88;;;;;;;22.51;53.30;100250.03;5102198;28;20047;-75
2021/07/10 07:33:20;;;;;;;2.22;1.00;;;;;;;22.68;53.36;100250.63;5102728;28;20051;-75
2021/07/10 07:35:47;;;;;;;1.05;0.80;;;;;;;22.75;52.65;100248.00;5104413;28;20695;-77
2021/07/10 07:38:15;;;;;;;6.18;1.02;;;;;;;22.85;52.43;100261.97;5103391;28;20238;-73
2021/07/10 07:40:43;;;;;;;6.25;1.05;;;;;;;22.97;52.53;100255.06;5102225;28;20043;-73
2021/07/10 07:43:10;;;;;;;1.20;1.10;;;;;;;22.85;51.53;100253.91;5108485;28;20039;-74
2021/07/10 07:45:37;;;;;;;2.70;1.33;;;;;;;22.86;51.58;100250.19;5114860;28;20052;-72
2021/07/10 07:48:04;;;;;;;1.20;0.90;;;;;;;22.67;51.56;100255.19;5107870;28;20519;-72
2021/07/10 07:50:31;;;;;;;0.95;0.82;;;;;;;22.66;52.27;100258.88;5109819;28;20050;-71
2021/07/10 07:52:58;;;;;;;0.77;0.77;;;;;;;22.97;52.09;100259.63;5109713;28;20070;-71
2021/07/10 07:55:25;;;;;;;0.85;0.80;;;;;;;23.29;51.60;100258.28;5106748;28;20653;-73
2021/07/10 07:57:53;;;;;;;2.92;0.90;;;;;;;23.32;51.80;100255.22;5107986;28;20044;-76
2021/07/10 08:00:24;;;;;;;3.83;1.60;;;;;;;23.27;50.01;100257.66;5106420;28;20047;-70
2021/07/10 08:02:51;;;;;;;1.02;0.90;;;;;;;22.87;51.07;100271.56;5106179;28;20044;-70
2021/07/10 08:05:18;;;;;;;1.38;1.08;;;;;;;22.87;50.32;100266.16;5105700;28;20047;-71
2021/07/10 08:07:45;;;;;;;2.17;1.10;;;;;;;23.07;50.54;100282.56;5106546;28;20048;-73
2021/07/10 08:10:14;;;;;;;2.85;1.88;;;;;;;23.21;50.37;100274.59;5104063;28;20047;-76
2021/07/10 08:12:43;;;;;;;2.67;1.30;;;;;;;23.04;50.24;100276.69;5105815;28;20484;-74
2021/07/10 08:15:13;;;;;;;1.55;1.10;;;;;;;23.22;50.92;100284.34;5106719;28;20047;-76
2021/07/10 08:17:40;;;;;;;1.15;1.05;;;;;;;23.66;50.18;100285.97;5105424;28;20487;-70
2021/07/10 08:20:08;;;;;;;2.35;1.77;;;;;;;23.71;50.07;100290.75;5104830;28;20492;-72
2021/07/10 08:22:35;;;;;;;3.65;2.92;;;;;;;23.51;49.86;100294.13;5104376;28;20047;-69
2021/07/10 08:25:02;;;;;;;2.45;0.90;;;;;;;23.53;50.37;100302.03;5105016;28;20044;-72
2021/07/10 08:27:28;;;;;;;0.85;0.85;;;;;;;23.18;48.97;100301.94;5104530;28;20059;-71
2021/07/10 08:29:55;;;;;;;1.20;1.10;;;;;;;23.19;50.36;100296.34;5106264;28;20048;-69
2021/07/10 08:32:24;;;;;;;2.45;1.15;;;;;;;23.63;49.17;100297.13;5108170;28;20052;-70
2021/07/10 08:34:51;;;;;;;0.98;0.98;;;;;;;23.55;48.42;100305.34;5105571;28;20420;-72
2021/07/10 08:37:19;;;;;;;1.48;0.70;;;;;;;23.67;48.33;100309.19;5105016;28;20519;-71
2021/07/10 08:39:46;;;;;;;0.68;0.68;;;;;;;23.32;48.96;100317.19;5073781;28;20476;-69
2021/07/10 08:42:13;;;;;;;2.13;1.15;;;;;;;23.48;48.27;100313.41;5103817;28;20068;-69
2021/07/10 08:44:41;;;;;;;1.15;1.05;;;;;;;23.58;48.09;100323.84;5104557;28;20039;-70
2021/07/10 08:47:13;;;;;;;1.08;0.75;;;;;;;23.45;48.19;100328.09;5104340;28;20092;-70
2021/07/10 08:49:42;;;;;;;1.92;0.80;;;;;;;23.63;48.71;100324.09;5104586;28;20067;-70
2021/07/10 08:52:09;;;;;;;4.93;2.45;;;;;;;23.77;48.11;100315.09;5104766;28;20050;-71
2021/07/10 08:54:37;;;;;;;1.20;1.05;;;;;;;23.92;48.18;100331.19;5106563;28;20188;-74
2021/07/10 08:57:05;;;;;;;2.28;1.05;;;;;;;23.82;48.04;100334.25;5108062;28;20040;-70
2021/07/10 08:59:32;;;;;;;1.13;1.05;;;;;;;23.31;49.46;100339.78;5108463;28;20058;-68
2021/07/10 09:01:59;;;;;;;1.25;0.90;;;;;;;23.27;49.41;100347.41;5108498;28;20055;-74
2021/07/10 09:04:26;;;;;;;0.98;0.98;;;;;;;23.11;49.29;100347.66;5107666;28;20052;-73
2021/07/10 09:06:54;;;;;;;3.45;1.45;;;;;;;22.98;49.69;100347.50;5108841;28;20054;-71
2021/07/10 09:09:42;;;;;;;1.17;1.08;;;;;;;23.12;50.01;100346.66;5107911;28;20048;-73
2021/07/10 09:12:10;;;;;;;2.38;1.40;;;;;;;23.37;49.77;100347.09;5104699;28;20108;-77
2021/07/10 09:14:37;;;;;;;2.92;1.15;;;;;;;23.27;49.69;100358.19;5105602;28;20411;-74
2021/07/10 09:17:18;;;;;;;2.72;1.35;;;;;;;23.16;49.99;100361.41;5108418;28;20043;-75
2021/07/10 09:19:45;;;;;;;4.15;1.63;;;;;;;23.00;50.67;100367.00;5108370;28;20019;-82
2021/07/10 09:22:25;;;;;;;1.92;1.42;;;;;;;22.76;50.75;100366.31;5107442;28;20122;-73
2021/07/10 09:24:52;;;;;;;1.73;1.52;;;;;;;22.71;50.50;100368.72;5107020;28;20044;-78
2021/07/10 09:27:18;;;;;;;2.03;1.42;;;;;;;22.72;50.29;100365.00;5106544;28;20545;-79
2021/07/10 09:29:47;;;;;;;2.30;2.10;;;;;;;22.78;49.98;100353.47;5107094;28;20062;-78
2021/07/10 09:32:18;;;;;;;2.08;1.88;;;;;;;22.92;50.31;100354.44;5106136;28;20419;-81
2021/07/10 09:34:48;;;;;;;3.28;2.05;;;;;;;22.83;50.23;100360.97;5104982;28;20053;-73
2021/07/10 09:37:17;;;;;;;2.28;1.55;;;;;;;22.55;51.08;100364.38;5109775;28;20139;-74
2021/07/10 09:39:46;;;;;;;1.73;1.50;;;;;;;22.51;51.28;100360.38;5098503;28;20050;-74
2021/07/10 09:42:15;;;;;;;1.80;1.70;;;;;;;22.83;51.30;100363.66;5102767;28;20050;-73
2021/07/10 09:44:45;;;;;;;3.78;2.38;;;;;;;23.07;50.34;100374.16;5099639;28;20089;-69
2021/07/10 09:47:13;;;;;;;1.60;1.38;;;;;;;22.85;50.82;100385.84;5102779;28;20059;-71
2021/07/10 09:49:42;;;;;;;1.80;1.70;;;;;;;22.42;51.12;100380.31;5114734;28;20039;-69
2021/07/10 09:52:12;;;;;;;2.17;1.90;;;;;;;22.56;51.37;100387.56;5103470;28;20044;-73
2021/07/10 09:54:43;;;;;;;4.57;2.15;;;;;;;22.80;50.99;100380.22;5102851;28;20051;-71
2021/07/10 09:57:15;;;;;;;2.35;2.15;;;;;;;23.16;50.44;100387.50;5101018;28;20048;-71
2021/07/10 09:59:45;;;;;;;3.28;2.60;;;;;;;23.36;49.71;100385.03;5100501;28;20044;-72
2021/07/10 10:02:15;;;;;;;3.03;2.72;;;;;;;23.35;49.79;100391.44;5101521;28;20078;-72
2021/07/10 10:04:43;;;;;;;2.30;2.15;;;;;;;23.09;50.04;100390.94;5098432;28;20036;-70
2021/07/10 10:07:12;;;;;;;4.95;1.90;;;;;;;22.98;50.27;100386.03;5102445;28;20175;-72
2021/07/10 10:09:39;;;;;;;2.65;2.17;;;;;;;22.98;50.26;100393.28;5099648;28;20047;-71
2021/07/10 10:12:11;;;;;;;2.10;1.88;;;;;;;22.97;49.52;100389.75;5100339;28;20063;-74
2021/07/10 10:14:43;;;;;;;2.35;1.55;;;;;;;22.67;50.28;100387.09;5101369;28;20242;-72
2021/07/10 10:17:11;;;;;;;1.92;1.70;;;;;;;22.77;50.08;100388.66;5100473;28;20044;-71
2021/07/10 10:19:38;;;;;;;1.98;1.77;;;;;;;22.78;50.45;100395.72;5100693;28;20047;-72
2021/07/10 10:22:07;;;;;;;2.42;1.70;;;;;;;22.92;50.28;100402.94;5101588;28;20044;-71
2021/07/10 10:24:36;;;;;;;3.40;1.95;;;;;;;22.96;50.28;100398.84;5100387;28;20162;-70
2021/07/10 10:27:04;;;;;;;2.10;1.80;;;;;;;23.05;49.90;100405.84;5099441;28;20051;-71
2021/07/10 10:29:34;;;;;;;1.67;1.38;;;;;;;23.03;49.84;100407.00;5101063;28;20048;-76
2021/07/10 10:32:02;;;;;;;1.38;1.27;;;;;;;23.19;50.04;100406.84;5098328;28;20036;-72
2021/07/10 10:34:29;;;;;;;1.90;1.65;;;;;;;23.26;49.72;100407.75;5101888;28;20047;-72
2021/07/10 10:36:58;;;;;;;1.77;1.48;;;;;;;23.36;49.78;100404.72;5105294;28;20055;-70
2021/07/10 10:39:27;;;;;;;2.22;1.80;;;;;;;23.19;50.19;100408.66;5105539;28;20298;-70
2021/07/10 10:41:59;;;;;;;2.78;1.50;;;;;;;23.01;51.08;100412.59;5109787;28;20040;-72
2021/07/10 10:44:28;;;;;;;3.70;1.65;;;;;;;22.98;51.04;100407.59;5096464;28;20044;-73
2021/07/10 10:46:57;;;;;;;2.78;2.05;;;;;;;22.95;51.00;100413.34;5103397;28;20517;-71
2021/07/10 10:49:36;;;;;;;4.20;1.75;;;;;;;22.87;51.33;100416.16;5100575;28;20130;-70
2021/07/10 10:52:22;;;;;;;3.15;2.05;;;;;;;23.04;51.31;100420.31;5099034;28;20036;-73
2021/07/10 10:54:51;;;;;;;2.95;2.13;;;;;;;23.31;51.15;100426.00;5103485;28;20138;-70
2021/07/10 10:57:18;;;;;;;1.85;1.75;;;;;;;23.53;50.17;100420.63;5109546;28;20059;-75
2021/07/10 10:59:46;;;;;;;2.83;2.03;;;;;;;23.53;50.08;100420.63;5100549;28;20043;-72
2021/07/10 11:02:50;;;;;;;3.10;2.13;;;;;;;23.28;49.93;100416.47;5102075;28;20706;-72
2021/07/10 11:05:44;;;;;;;2.67;2.22;;;;;;;23.29;50.77;100425.38;5100220;28;20134;-72
2021/07/10 11:08:31;;;;;;;2.13;1.92;;;;;;;23.29;50.63;100422.69;5099321;28;20055;-76
2021/07/10 11:11:34;;;;;;;2.47;2.28;;;;;;;23.37;50.67;100427.97;5098894;28;20054;-72
2021/07/10 11:14:15;;;;;;;1.90;1.80;;;;;;;23.01;50.87;100422.53;5040149;28;20045;-71
2021/07/10 11:17:20;;;;;;;2.40;2.17;;;;;;;22.96;51.47;100419.56;5043912;28;20045;-70
2021/07/10 11:19:56;;;;;;;2.27;1.73;;;;;;;22.97;50.37;100423.94;5043411;28;20672;-71
2021/07/10 11:23:00;;;;;;;2.17;1.92;;;;;;;23.21;50.05;100425.47;5041392;28;20053;-71
2021/07/10 11:26:00;;;;;;;2.55;2.35;;;;;;;23.83;49.04;100421.38;5040342;28;20048;-71
2021/07/10 11:28:30;;;;;;;3.60;2.42;;;;;;;24.41;48.05;100418.47;5039592;28;20424;-70
2021/07/10 11:31:00;;;;;;;2.70;2.25;;;;;;;24.94;47.23;100413.41;5045230;28;20539;-71
2021/07/10 11:34:00;;;;;;;6.57;2.50;;;;;;;25.23;46.44;100424.94;5051326;28;20052;-71
2021/07/10 11:36:47;;;;;;;3.85;2.13;;;;;;;24.85;47.21;100420.00;5040633;28;20041;-69